createdAt,value
2018-06-10T00:00:06.271Z,0.00
2018-06-10T00:01:06.246Z,0.00
2018-06-10T00:02:06.226Z,0.00
2018-06-10T00:03:06.243Z,0.00
2018-06-10T00:04:06.183Z,0.00
2018-06-10T00:05:06.155Z,0.00
2018-06-10T00:06:06.135Z,0.00
2018-06-10T00:07:06.148Z,0.00
2018-06-10T00:08:06.096Z,0.00
2018-06-10T00:09:06.061Z,0.00
2018-06-10T00:10:06.037Z,0.00
2018-06-10T00:11:06.062Z,0.00
2018-06-10T00:12:05.991Z,0.00
2018-06-10T00:13:05.966Z,0.00
2018-06-10T00:14:05.947Z,0.00
2018-06-10T00:15:05.973Z,0.00
2018-06-10T00:16:05.905Z,0.00
2018-06-10T00:17:05.876Z,0.00
2018-06-10T00:18:05.896Z,0.00
2018-06-10T00:19:05.831Z,0.00
2018-06-10T00:20:05.821Z,0.00
2018-06-10T00:21:06.508Z,0.00
2018-06-10T00:22:05.805Z,0.00
2018-06-10T00:23:05.743Z,0.00
2018-06-10T00:24:05.718Z,0.00
2018-06-10T00:25:05.700Z,0.00
2018-06-10T00:26:05.669Z,0.00
2018-06-10T00:27:05.716Z,0.00
2018-06-10T00:28:05.624Z,0.00
2018-06-10T00:29:05.602Z,0.00
2018-06-10T00:30:05.587Z,0.00
2018-06-10T00:31:05.558Z,0.00
2018-06-10T00:32:05.586Z,0.00
2018-06-10T00:33:05.509Z,0.00
2018-06-10T00:34:05.487Z,0.00
2018-06-10T00:35:05.464Z,0.00
2018-06-10T00:36:05.449Z,0.00
2018-06-10T00:37:05.476Z,0.00
2018-06-10T00:38:05.391Z,0.00
2018-06-10T00:39:05.371Z,0.00
2018-06-10T00:40:05.348Z,0.00
2018-06-10T00:41:05.330Z,0.00
2018-06-10T00:42:05.356Z,0.00
2018-06-10T00:43:05.280Z,0.00
2018-06-10T00:44:05.261Z,0.00
2018-06-10T00:45:05.276Z,0.00
2018-06-10T00:46:05.229Z,0.00
2018-06-10T00:47:05.183Z,0.00
2018-06-10T00:48:05.220Z,0.00
2018-06-10T00:49:05.134Z,0.00
2018-06-10T00:50:05.111Z,0.00
2018-06-10T00:51:05.100Z,0.00
2018-06-10T00:52:05.070Z,0.00
2018-06-10T00:53:05.108Z,0.00
2018-06-10T00:54:05.029Z,0.00
2018-06-10T00:55:04.998Z,0.00
2018-06-10T00:56:05.516Z,0.00
2018-06-10T00:57:04.952Z,0.00
2018-06-10T00:58:04.975Z,0.00
2018-06-10T00:59:04.903Z,0.00
2018-06-10T01:00:04.879Z,0.00
2018-06-10T01:01:04.853Z,0.00
2018-06-10T01:02:04.831Z,0.00
2018-06-10T01:03:04.850Z,0.00
2018-06-10T01:04:04.788Z,0.00
2018-06-10T01:05:04.777Z,0.00
2018-06-10T01:06:04.747Z,0.00
2018-06-10T01:07:04.761Z,0.00
2018-06-10T01:08:04.757Z,0.00
2018-06-10T01:09:04.679Z,0.00
2018-06-10T01:10:04.645Z,0.00
2018-06-10T01:11:04.635Z,0.00
2018-06-10T01:12:04.603Z,0.00
2018-06-10T01:13:04.622Z,0.00
2018-06-10T01:14:04.550Z,0.00
2018-06-10T01:15:04.530Z,0.00
2018-06-10T01:16:04.514Z,0.00
2018-06-10T01:17:04.482Z,0.00
2018-06-10T01:18:04.512Z,0.00
2018-06-10T01:19:04.438Z,0.00
2018-06-10T01:20:04.414Z,0.00
2018-06-10T01:21:04.386Z,0.00
2018-06-10T01:22:04.366Z,0.00
2018-06-10T01:23:04.401Z,0.00
2018-06-10T01:24:04.319Z,0.00
2018-06-10T01:25:04.376Z,0.00
2018-06-10T01:26:04.272Z,0.00
2018-06-10T01:27:04.245Z,0.00
2018-06-10T01:28:04.254Z,0.00
2018-06-10T01:29:04.197Z,0.00
2018-06-10T01:30:04.222Z,0.00
2018-06-10T01:31:04.215Z,0.00
2018-06-10T01:32:04.134Z,0.00
2018-06-10T01:33:04.114Z,0.00
2018-06-10T01:34:04.087Z,0.00
2018-06-10T01:35:04.065Z,0.00
2018-06-10T01:36:04.088Z,0.00
2018-06-10T01:37:04.016Z,0.00
2018-06-10T01:38:03.992Z,0.00
2018-06-10T01:39:04.020Z,0.00
2018-06-10T01:40:03.943Z,0.00
2018-06-10T01:41:03.972Z,0.00
2018-06-10T01:42:03.899Z,0.00
2018-06-10T01:43:03.894Z,0.00
2018-06-10T01:44:03.894Z,0.00
2018-06-10T01:45:03.823Z,0.00
2018-06-10T01:46:03.804Z,0.00
2018-06-10T01:47:03.780Z,0.00
2018-06-10T01:48:03.818Z,0.00
2018-06-10T01:49:03.783Z,0.00
2018-06-10T01:50:03.714Z,0.00
2018-06-10T01:51:03.692Z,0.00
2018-06-10T01:52:03.666Z,0.00
2018-06-10T01:53:03.669Z,0.00
2018-06-10T01:54:03.672Z,0.00
2018-06-10T01:55:03.589Z,0.00
2018-06-10T01:56:03.569Z,0.00
2018-06-10T01:57:03.539Z,4.00
2018-06-10T01:58:03.516Z,4.00
2018-06-10T01:59:03.536Z,4.00
2018-06-10T02:00:03.470Z,4.00
2018-06-10T02:01:03.457Z,0.00
2018-06-10T02:02:03.424Z,0.00
2018-06-10T02:03:03.397Z,4.00
2018-06-10T02:04:03.430Z,4.00
2018-06-10T02:05:03.362Z,4.00
2018-06-10T02:06:03.326Z,8.00
2018-06-10T02:07:03.593Z,4.00
2018-06-10T02:08:03.276Z,8.00
2018-06-10T02:09:04.035Z,4.00
2018-06-10T02:10:03.231Z,8.00
2018-06-10T02:11:03.212Z,8.00
2018-06-10T02:12:03.591Z,12.00
2018-06-10T02:13:03.162Z,12.00
2018-06-10T02:14:03.132Z,12.00
2018-06-10T02:15:03.111Z,16.00
2018-06-10T02:16:04.035Z,20.00
2018-06-10T02:17:03.123Z,16.00
2018-06-10T02:18:03.061Z,20.00
2018-06-10T02:19:03.531Z,24.00
2018-06-10T02:20:02.990Z,28.00
2018-06-10T02:21:02.966Z,32.00
2018-06-10T02:22:03.015Z,32.00
2018-06-10T02:23:03.537Z,40.00
2018-06-10T02:24:02.894Z,40.00
2018-06-10T02:25:02.878Z,44.00
2018-06-10T02:26:02.851Z,52.00
2018-06-10T02:27:02.867Z,56.00
2018-06-10T02:28:03.541Z,64.00
2018-06-10T02:29:02.826Z,72.00
2018-06-10T02:30:02.753Z,76.00
2018-06-10T02:31:03.538Z,84.00
2018-06-10T02:32:02.707Z,92.00
2018-06-10T02:33:02.693Z,100.00
2018-06-10T02:34:03.108Z,112.00
2018-06-10T02:35:02.725Z,124.00
2018-06-10T02:36:02.610Z,136.00
2018-06-10T02:37:02.585Z,144.00
2018-06-10T02:38:02.563Z,160.00
2018-06-10T02:39:02.586Z,172.00
2018-06-10T02:40:02.615Z,188.00
2018-06-10T02:41:03.042Z,204.00
2018-06-10T02:42:02.537Z,220.00
2018-06-10T02:43:02.452Z,236.00
2018-06-10T02:44:02.463Z,256.00
2018-06-10T02:45:02.397Z,272.00
2018-06-10T02:46:02.430Z,292.00
2018-06-10T02:47:02.342Z,312.00
2018-06-10T02:48:02.344Z,332.00
2018-06-10T02:49:02.307Z,356.00
2018-06-10T02:50:02.275Z,380.00
2018-06-10T02:51:02.299Z,404.00
2018-06-10T02:52:03.044Z,432.00
2018-06-10T02:53:02.215Z,464.00
2018-06-10T02:54:02.178Z,492.00
2018-06-10T02:55:02.614Z,524.00
2018-06-10T02:56:02.136Z,556.00
2018-06-10T02:57:02.112Z,592.00
2018-06-10T02:58:02.080Z,624.00
2018-06-10T02:59:02.062Z,656.00
2018-06-10T03:00:02.085Z,692.00
2018-06-10T03:01:02.025Z,728.00
2018-06-10T03:02:02.016Z,768.00
2018-06-10T03:03:02.543Z,812.00
2018-06-10T03:04:01.949Z,852.00
2018-06-10T03:05:01.957Z,896.00
2018-06-10T03:06:01.908Z,944.00
2018-06-10T03:07:01.904Z,988.00
2018-06-10T03:08:04.546Z,1040.00
2018-06-10T03:09:01.826Z,1088.00
2018-06-10T03:10:01.792Z,1140.00
2018-06-10T03:11:01.831Z,1196.00
2018-06-10T03:12:02.553Z,1248.00
2018-06-10T03:13:01.768Z,1308.00
2018-06-10T03:14:01.701Z,1360.00
2018-06-10T03:15:02.549Z,1420.00
2018-06-10T03:16:01.665Z,1480.00
2018-06-10T03:17:01.632Z,1540.00
2018-06-10T03:18:01.648Z,1600.00
2018-06-10T03:19:02.106Z,1652.00
2018-06-10T03:20:01.552Z,1704.00
2018-06-10T03:21:01.528Z,1744.00
2018-06-10T03:22:01.611Z,1788.00
2018-06-10T03:23:01.535Z,1832.00
2018-06-10T03:24:01.463Z,1884.00
2018-06-10T03:25:02.048Z,1940.00
2018-06-10T03:26:01.415Z,1984.00
2018-06-10T03:27:01.388Z,2036.00
2018-06-10T03:28:01.695Z,2096.00
2018-06-10T03:29:01.408Z,2152.00
2018-06-10T03:30:01.382Z,2212.00
2018-06-10T03:31:02.098Z,2264.00
2018-06-10T03:32:01.276Z,2320.00
2018-06-10T03:33:01.253Z,2364.00
2018-06-10T03:34:01.645Z,2408.00
2018-06-10T03:35:02.064Z,2448.00
2018-06-10T03:36:01.182Z,2492.00
2018-06-10T03:37:02.071Z,2532.00
2018-06-10T03:38:01.131Z,2592.00
2018-06-10T03:39:01.152Z,2664.00
2018-06-10T03:40:01.129Z,2736.00
2018-06-10T03:41:01.113Z,2828.00
2018-06-10T03:42:01.091Z,2944.00
2018-06-10T03:43:01.007Z,3064.00
2018-06-10T03:44:01.590Z,3180.00
2018-06-10T03:45:00.962Z,3284.00
2018-06-10T03:46:01.111Z,3380.00
2018-06-10T03:47:00.919Z,3460.00
2018-06-10T03:48:00.893Z,3548.00
2018-06-10T03:49:00.864Z,3664.00
2018-06-10T03:50:00.895Z,3772.00
2018-06-10T03:51:00.818Z,3876.00
2018-06-10T03:52:00.837Z,3960.00
2018-06-10T03:53:00.773Z,4036.00
2018-06-10T03:54:00.748Z,4096.00
2018-06-10T03:55:01.571Z,4192.00
2018-06-10T03:56:00.700Z,4312.00
2018-06-10T03:57:00.743Z,4424.00
2018-06-10T03:58:01.558Z,4500.00
2018-06-10T03:59:00.633Z,4516.00
2018-06-10T04:00:00.622Z,4508.00
2018-06-10T04:01:00.584Z,4464.00
2018-06-10T04:02:00.632Z,4460.00
2018-06-10T04:03:00.540Z,4488.00
2018-06-10T04:04:00.517Z,4528.00
2018-06-10T04:05:01.061Z,4600.00
2018-06-10T04:06:00.472Z,4656.00
2018-06-10T04:07:00.496Z,4684.00
2018-06-10T04:08:01.071Z,4736.00
2018-06-10T04:09:00.402Z,4760.00
2018-06-10T04:10:00.382Z,4748.00
2018-06-10T04:11:01.061Z,4724.00
2018-06-10T04:12:00.383Z,4732.00
2018-06-10T04:13:00.358Z,4844.00
2018-06-10T04:14:00.326Z,5024.00
2018-06-10T04:15:00.267Z,5124.00
2018-06-10T04:16:00.239Z,5356.00
2018-06-10T04:17:00.217Z,5616.00
2018-06-10T04:18:00.235Z,5712.00
2018-06-10T04:19:00.195Z,5868.00
2018-06-10T04:20:01.066Z,5476.00
2018-06-10T04:21:00.125Z,5324.00
2018-06-10T04:22:00.105Z,5356.00
2018-06-10T04:23:00.131Z,5512.00
2018-06-10T04:24:00.062Z,5796.00
2018-06-10T04:25:00.054Z,6260.00
2018-06-10T04:26:00.087Z,6352.00
2018-06-10T04:27:00.563Z,6196.00
2018-06-10T04:28:00.026Z,6144.00
2018-06-10T04:28:59.944Z,6160.00
2018-06-10T04:30:00.563Z,6204.00
2018-06-10T04:30:59.908Z,6220.00
2018-06-10T04:32:00.568Z,6268.00
2018-06-10T04:32:59.902Z,6332.00
2018-06-10T04:34:00.572Z,6416.00
2018-06-10T04:34:59.816Z,6528.00
2018-06-10T04:35:59.833Z,6636.00
2018-06-10T04:36:59.770Z,6724.00
2018-06-10T04:38:00.564Z,6824.00
2018-06-10T04:38:59.772Z,6912.00
2018-06-10T04:39:59.705Z,7024.00
2018-06-10T04:41:00.581Z,7156.00
2018-06-10T04:41:59.675Z,7336.00
2018-06-10T04:42:59.634Z,7416.00
2018-06-10T04:43:59.660Z,7476.00
2018-06-10T04:44:59.592Z,7724.00
2018-06-10T04:45:59.628Z,7936.00
2018-06-10T04:46:59.556Z,8060.00
2018-06-10T04:47:59.528Z,8116.00
2018-06-10T04:48:59.547Z,8124.00
2018-06-10T04:49:59.521Z,8104.00
2018-06-10T04:50:59.624Z,8132.00
2018-06-10T04:51:59.444Z,8348.00
2018-06-10T04:52:59.478Z,8572.00
2018-06-10T04:53:59.400Z,8816.00
2018-06-10T04:54:59.422Z,8944.00
2018-06-10T04:55:59.623Z,8908.00
2018-06-10T04:56:59.340Z,9252.00
2018-06-10T04:57:59.319Z,9736.00
2018-06-10T04:58:59.295Z,10440.00
2018-06-10T04:59:59.625Z,9400.00
2018-06-10T05:00:59.249Z,8420.00
2018-06-10T05:01:59.231Z,8016.00
2018-06-10T05:02:59.215Z,7928.00
2018-06-10T05:04:00.077Z,8012.00
2018-06-10T05:04:59.206Z,8208.00
2018-06-10T05:05:59.146Z,8448.00
2018-06-10T05:06:59.125Z,8740.00
2018-06-10T05:07:59.159Z,9192.00
2018-06-10T05:09:00.077Z,10048.00
2018-06-10T05:09:59.059Z,10260.00
2018-06-10T05:10:59.039Z,11940.00
2018-06-10T05:11:59.020Z,13056.00
2018-06-10T05:12:59.044Z,12304.00
2018-06-10T05:13:58.978Z,11696.00
2018-06-10T05:14:58.981Z,11276.00
2018-06-10T05:15:58.939Z,10840.00
2018-06-10T05:16:58.931Z,10532.00
2018-06-10T05:17:58.933Z,10536.00
2018-06-10T05:18:58.920Z,10364.00
2018-06-10T05:19:58.918Z,11476.00
2018-06-10T05:20:58.834Z,10888.00
2018-06-10T05:21:58.813Z,9980.00
2018-06-10T05:22:58.807Z,9796.00
2018-06-10T05:23:58.822Z,9424.00
2018-06-10T05:24:58.787Z,9732.00
2018-06-10T05:25:58.735Z,9928.00
2018-06-10T05:26:58.720Z,10296.00
2018-06-10T05:27:58.694Z,12580.00
2018-06-10T05:28:58.731Z,17856.00
2018-06-10T05:29:58.699Z,14972.00
2018-06-10T05:30:58.636Z,10416.00
2018-06-10T05:31:58.632Z,10820.00
2018-06-10T05:32:58.598Z,11092.00
2018-06-10T05:33:58.578Z,10568.00
2018-06-10T05:34:58.640Z,10772.00
2018-06-10T05:35:58.667Z,11064.00
2018-06-10T05:36:58.520Z,11504.00
2018-06-10T05:37:58.521Z,11696.00
2018-06-10T05:38:58.479Z,11880.00
2018-06-10T05:39:58.509Z,12240.00
2018-06-10T05:40:58.447Z,13024.00
2018-06-10T05:41:58.419Z,13208.00
2018-06-10T05:42:58.411Z,13000.00
2018-06-10T05:43:58.383Z,12884.00
2018-06-10T05:44:58.414Z,13356.00
2018-06-10T05:45:58.344Z,13940.00
2018-06-10T05:46:58.326Z,14432.00
2018-06-10T05:47:58.312Z,15276.00
2018-06-10T05:48:58.285Z,16144.00
2018-06-10T05:49:58.312Z,16856.00
2018-06-10T05:50:58.307Z,17632.00
2018-06-10T05:51:58.232Z,18176.00
2018-06-10T05:52:58.237Z,18624.00
2018-06-10T05:53:58.191Z,18976.00
2018-06-10T05:54:58.189Z,19232.00
2018-06-10T05:55:58.220Z,19296.00
2018-06-10T05:56:58.144Z,19264.00
2018-06-10T05:57:58.117Z,19008.00
2018-06-10T05:58:58.098Z,18624.00
2018-06-10T05:59:58.081Z,17952.00
2018-06-10T06:00:58.110Z,17088.00
2018-06-10T06:01:58.059Z,16992.00
2018-06-10T06:02:58.082Z,17184.00
2018-06-10T06:03:58.010Z,17408.00
2018-06-10T06:04:58.019Z,17568.00
2018-06-10T06:05:57.977Z,17664.00
2018-06-10T06:06:58.009Z,17440.00
2018-06-10T06:07:57.945Z,17248.00
2018-06-10T06:08:57.921Z,17248.00
2018-06-10T06:09:57.905Z,17504.00
2018-06-10T06:10:57.973Z,17920.00
2018-06-10T06:11:57.915Z,18432.00
2018-06-10T06:12:57.906Z,18752.00
2018-06-10T06:13:57.837Z,18912.00
2018-06-10T06:14:57.827Z,18848.00
2018-06-10T06:15:57.801Z,18816.00
2018-06-10T06:16:57.838Z,18720.00
2018-06-10T06:17:57.774Z,19040.00
2018-06-10T06:18:57.797Z,19296.00
2018-06-10T06:19:57.739Z,19648.00
2018-06-10T06:20:57.723Z,19808.00
2018-06-10T06:21:57.755Z,20320.00
2018-06-10T06:22:57.690Z,20128.00
2018-06-10T06:23:57.669Z,20064.00
2018-06-10T06:24:57.654Z,19712.00
2018-06-10T06:25:57.639Z,19328.00
2018-06-10T06:26:57.678Z,19136.00
2018-06-10T06:27:57.604Z,18912.00
2018-06-10T06:28:57.588Z,18624.00
2018-06-10T06:29:57.569Z,18560.00
2018-06-10T06:30:57.560Z,18240.00
2018-06-10T06:31:57.592Z,18304.00
2018-06-10T06:32:57.599Z,18304.00
2018-06-10T06:33:58.099Z,18368.00
2018-06-10T06:34:57.492Z,18560.00
2018-06-10T06:35:57.476Z,18528.00
2018-06-10T06:36:57.460Z,18400.00
2018-06-10T06:37:57.507Z,18336.00
2018-06-10T06:38:57.430Z,17632.00
2018-06-10T06:39:57.417Z,16380.00
2018-06-10T06:40:57.395Z,15496.00
2018-06-10T06:41:57.382Z,14728.00
2018-06-10T06:42:57.421Z,14400.00
2018-06-10T06:43:57.350Z,14124.00
2018-06-10T06:44:57.331Z,14096.00
2018-06-10T06:45:57.318Z,14076.00
2018-06-10T06:46:57.301Z,14388.00
2018-06-10T06:47:57.330Z,14188.00
2018-06-10T06:48:57.319Z,14544.00
2018-06-10T06:49:57.256Z,14604.00
2018-06-10T06:50:58.010Z,14308.00
2018-06-10T06:51:57.226Z,13972.00
2018-06-10T06:52:57.212Z,13736.00
2018-06-10T06:53:57.247Z,13056.00
2018-06-10T06:54:57.176Z,12436.00
2018-06-10T06:55:57.160Z,12168.00
2018-06-10T06:56:57.145Z,11820.00
2018-06-10T06:57:57.173Z,11872.00
2018-06-10T06:58:57.167Z,11688.00
2018-06-10T06:59:57.093Z,11536.00
2018-06-10T07:00:57.121Z,11564.00
2018-06-10T07:01:57.061Z,11464.00
2018-06-10T07:02:57.083Z,11316.00
2018-06-10T07:03:57.067Z,11120.00
2018-06-10T07:04:57.057Z,10928.00
2018-06-10T07:05:56.996Z,10740.00
2018-06-10T07:06:56.980Z,10520.00
2018-06-10T07:07:56.966Z,10336.00
2018-06-10T07:08:56.988Z,10256.00
2018-06-10T07:09:56.986Z,10364.00
2018-06-10T07:10:56.918Z,10532.00
2018-06-10T07:11:56.902Z,10652.00
2018-06-10T07:12:56.882Z,10576.00
2018-06-10T07:13:56.863Z,10484.00
2018-06-10T07:14:56.892Z,10472.00
2018-06-10T07:15:56.829Z,10580.00
2018-06-10T07:16:56.855Z,10488.00
2018-06-10T07:17:56.796Z,10524.00
2018-06-10T07:18:56.777Z,10592.00
2018-06-10T07:19:56.825Z,10732.00
2018-06-10T07:20:56.787Z,11076.00
2018-06-10T07:21:56.725Z,11360.00
2018-06-10T07:22:56.715Z,11716.00
2018-06-10T07:23:56.695Z,12176.00
2018-06-10T07:24:56.676Z,12440.00
2018-06-10T07:25:56.724Z,12856.00
2018-06-10T07:26:56.642Z,13176.00
2018-06-10T07:27:56.627Z,13264.00
2018-06-10T07:28:56.610Z,13104.00
2018-06-10T07:29:56.594Z,13024.00
2018-06-10T07:30:56.616Z,13024.00
2018-06-10T07:31:56.611Z,12976.00
2018-06-10T07:32:56.541Z,13168.00
2018-06-10T07:33:56.528Z,13524.00
2018-06-10T07:34:56.511Z,13904.00
2018-06-10T07:35:56.494Z,14340.00
2018-06-10T07:36:56.515Z,14376.00
2018-06-10T07:37:56.500Z,14352.00
2018-06-10T07:38:56.438Z,14244.00
2018-06-10T07:39:56.470Z,13900.00
2018-06-10T07:40:56.412Z,13848.00
2018-06-10T07:41:56.390Z,13788.00
2018-06-10T07:42:56.388Z,13576.00
2018-06-10T07:43:56.358Z,13548.00
2018-06-10T07:44:56.386Z,13620.00
2018-06-10T07:45:56.361Z,13664.00
2018-06-10T07:46:56.355Z,13896.00
2018-06-10T07:47:56.290Z,14044.00
2018-06-10T07:48:56.270Z,14160.00
2018-06-10T07:49:56.255Z,14288.00
2018-06-10T07:50:56.286Z,14220.00
2018-06-10T07:51:56.224Z,13956.00
2018-06-10T07:52:56.287Z,14200.00
2018-06-10T07:53:56.202Z,14112.00
2018-06-10T07:54:56.177Z,14240.00
2018-06-10T07:55:56.221Z,14220.00
2018-06-10T07:56:56.150Z,14084.00
2018-06-10T07:58:01.174Z,13620.00
2018-06-10T07:58:56.108Z,12848.00
2018-06-10T07:59:56.098Z,12536.00
2018-06-10T08:00:56.083Z,12372.00
2018-06-10T08:01:56.060Z,12492.00
2018-06-10T08:02:56.117Z,12912.00
2018-06-10T08:03:56.051Z,13332.00
2018-06-10T08:04:56.016Z,13492.00
2018-06-10T08:05:55.993Z,13296.00
2018-06-10T08:06:55.980Z,13092.00
2018-06-10T08:07:56.029Z,12860.00
2018-06-10T08:08:55.947Z,12872.00
2018-06-10T08:09:55.930Z,13020.00
2018-06-10T08:10:55.915Z,13104.00
2018-06-10T08:11:55.908Z,13168.00
2018-06-10T08:12:55.926Z,13064.00
2018-06-10T08:13:55.873Z,12816.00
2018-06-10T08:14:55.899Z,12488.00
2018-06-10T08:15:55.838Z,12020.00
2018-06-10T08:16:55.865Z,11700.00
2018-06-10T08:17:55.853Z,11544.00
2018-06-10T08:18:55.786Z,11416.00
2018-06-10T08:19:55.771Z,11272.00
2018-06-10T08:20:55.752Z,11024.00
2018-06-10T08:21:55.737Z,10576.00
2018-06-10T08:22:55.780Z,10176.00
2018-06-10T08:23:55.712Z,9844.00
2018-06-10T08:24:55.688Z,9708.00
2018-06-10T08:25:55.711Z,9732.00
2018-06-10T08:26:57.767Z,9836.00
2018-06-10T08:27:55.688Z,9832.00
2018-06-10T08:28:55.675Z,9960.00
2018-06-10T08:29:55.611Z,10144.00
2018-06-10T08:30:55.600Z,9940.00
2018-06-10T08:31:55.702Z,9884.00
2018-06-10T08:32:55.565Z,10036.00
2018-06-10T08:33:55.595Z,10264.00
2018-06-10T08:34:55.573Z,10580.00
2018-06-10T08:35:55.512Z,10612.00
2018-06-10T08:36:55.498Z,10564.00
2018-06-10T08:37:55.480Z,10184.00
2018-06-10T08:38:55.472Z,10008.00
2018-06-10T08:39:55.491Z,9908.00
2018-06-10T08:40:55.431Z,9808.00
2018-06-10T08:41:55.414Z,9916.00
2018-06-10T08:42:55.413Z,9972.00
2018-06-10T08:43:55.452Z,9884.00
2018-06-10T08:44:55.412Z,9980.00
2018-06-10T08:45:55.360Z,10168.00
2018-06-10T08:46:55.333Z,10464.00
2018-06-10T08:47:55.316Z,10832.00
2018-06-10T08:48:55.299Z,11304.00
2018-06-10T08:49:55.330Z,11752.00
2018-06-10T08:50:55.269Z,12012.00
2018-06-10T08:51:55.301Z,12196.00
2018-06-10T08:52:55.233Z,12156.00
2018-06-10T08:53:55.220Z,12096.00
2018-06-10T08:54:55.244Z,12192.00
2018-06-10T08:55:55.186Z,12464.00
2018-06-10T08:56:55.207Z,12892.00
2018-06-10T08:57:55.212Z,13112.00
2018-06-10T08:58:55.176Z,13260.00
2018-06-10T08:59:55.122Z,13572.00
2018-06-10T09:00:55.117Z,13444.00
2018-06-10T09:01:55.136Z,13320.00
2018-06-10T09:02:55.134Z,13008.00
2018-06-10T09:03:55.054Z,12932.00
2018-06-10T09:04:55.090Z,12888.00
2018-06-10T09:05:55.025Z,12748.00
2018-06-10T09:06:55.008Z,12820.00
2018-06-10T09:07:55.036Z,12936.00
2018-06-10T09:08:55.066Z,13044.00
2018-06-10T09:09:55.653Z,13280.00
2018-06-10T09:10:54.991Z,13476.00
2018-06-10T09:11:54.931Z,13804.00
2018-06-10T09:12:54.913Z,14212.00
2018-06-10T09:13:54.957Z,14516.00
2018-06-10T09:14:54.939Z,14692.00
2018-06-10T09:15:54.868Z,15032.00
2018-06-10T09:16:54.851Z,15684.00
2018-06-10T09:17:54.839Z,16420.00
2018-06-10T09:18:54.868Z,16780.00
2018-06-10T09:19:54.847Z,17152.00
2018-06-10T09:20:54.791Z,17600.00
2018-06-10T09:21:54.773Z,18304.00
2018-06-10T09:22:54.758Z,19296.00
2018-06-10T09:23:54.765Z,20192.00
2018-06-10T09:24:54.777Z,20928.00
2018-06-10T09:25:54.714Z,21344.00
2018-06-10T09:26:55.667Z,21440.00
2018-06-10T09:27:54.680Z,21344.00
2018-06-10T09:28:56.812Z,21184.00
2018-06-10T09:29:54.652Z,20896.00
2018-06-10T09:30:54.638Z,20576.00
2018-06-10T09:31:54.637Z,20352.00
2018-06-10T09:32:54.607Z,19936.00
2018-06-10T09:33:54.651Z,19136.00
2018-06-10T09:34:54.583Z,18688.00
2018-06-10T09:35:54.574Z,18592.00
2018-06-10T09:36:54.557Z,18688.00
2018-06-10T09:37:54.542Z,19328.00
2018-06-10T09:38:54.570Z,19936.00
2018-06-10T09:39:54.553Z,20672.00
2018-06-10T09:40:54.493Z,21152.00
2018-06-10T09:41:54.477Z,21312.00
2018-06-10T09:42:54.467Z,21120.00
2018-06-10T09:43:54.461Z,20864.00
2018-06-10T09:44:54.484Z,20736.00
2018-06-10T09:45:54.427Z,20704.00
2018-06-10T09:46:54.411Z,20640.00
2018-06-10T09:47:54.397Z,20576.00
2018-06-10T09:48:54.383Z,20480.00
2018-06-10T09:49:54.471Z,20448.00
2018-06-10T09:50:54.355Z,20448.00
2018-06-10T09:51:54.392Z,20288.00
2018-06-10T09:52:54.332Z,19968.00
2018-06-10T09:53:54.314Z,19552.00
2018-06-10T09:54:54.303Z,19264.00
2018-06-10T09:55:54.339Z,19040.00
2018-06-10T09:56:54.277Z,19008.00
2018-06-10T09:57:54.260Z,19072.00
2018-06-10T09:58:54.288Z,19200.00
2018-06-10T09:59:54.238Z,19104.00
2018-06-10T10:00:54.222Z,18944.00
2018-06-10T10:01:54.266Z,18784.00
2018-06-10T10:02:54.221Z,18816.00
2018-06-10T10:03:54.185Z,18976.00
2018-06-10T10:04:54.180Z,19168.00
2018-06-10T10:05:54.160Z,19520.00
2018-06-10T10:06:54.193Z,19904.00
2018-06-10T10:07:54.132Z,20352.00
2018-06-10T10:08:54.204Z,20640.00
2018-06-10T10:09:54.113Z,21024.00
2018-06-10T10:10:54.093Z,21280.00
2018-06-10T10:11:54.223Z,21600.00
2018-06-10T10:12:54.070Z,22016.00
2018-06-10T10:13:54.056Z,22240.00
2018-06-10T10:14:54.045Z,22080.00
2018-06-10T10:15:54.030Z,21888.00
2018-06-10T10:16:54.064Z,21792.00
2018-06-10T10:17:54.004Z,21888.00
2018-06-10T10:18:53.996Z,21728.00
2018-06-10T10:19:54.034Z,21472.00
2018-06-10T10:20:53.973Z,21408.00
2018-06-10T10:21:53.960Z,21440.00
2018-06-10T10:22:53.949Z,21568.00
2018-06-10T10:23:53.939Z,21632.00
2018-06-10T10:24:53.963Z,21568.00
2018-06-10T10:25:53.966Z,21216.00
2018-06-10T10:26:53.922Z,20896.00
2018-06-10T10:27:53.882Z,20832.00
2018-06-10T10:28:53.872Z,20448.00
2018-06-10T10:29:53.857Z,20160.00
2018-06-10T10:30:53.898Z,19616.00
2018-06-10T10:31:53.845Z,19552.00
2018-06-10T10:32:53.824Z,19712.00
2018-06-10T10:33:53.914Z,19776.00
2018-06-10T10:34:53.803Z,19808.00
2018-06-10T10:35:53.837Z,20352.00
2018-06-10T10:36:53.817Z,20928.00
2018-06-10T10:37:53.762Z,21728.00
2018-06-10T10:38:53.746Z,21728.00
2018-06-10T10:39:53.734Z,21824.00
2018-06-10T10:40:53.728Z,21600.00
2018-06-10T10:41:53.764Z,20704.00
2018-06-10T10:42:53.699Z,19424.00
2018-06-10T10:43:53.688Z,18432.00
2018-06-10T10:44:53.673Z,17504.00
2018-06-10T10:45:53.664Z,16928.00
2018-06-10T10:46:53.739Z,17056.00
2018-06-10T10:47:53.645Z,17024.00
2018-06-10T10:48:53.661Z,16204.00
2018-06-10T10:49:53.614Z,15584.00
2018-06-10T10:50:53.604Z,14732.00
2018-06-10T10:51:53.666Z,14448.00
2018-06-10T10:52:54.183Z,14116.00
2018-06-10T10:53:53.567Z,13964.00
2018-06-10T10:54:53.597Z,13556.00
2018-06-10T10:55:53.542Z,13088.00
2018-06-10T10:56:53.528Z,12640.00
2018-06-10T10:57:53.559Z,13332.00
2018-06-10T10:58:53.509Z,13792.00
2018-06-10T10:59:53.551Z,13900.00
2018-06-10T11:00:53.477Z,13832.00
2018-06-10T11:01:53.522Z,13556.00
2018-06-10T11:02:53.455Z,12900.00
2018-06-10T11:03:53.441Z,12152.00
2018-06-10T11:04:53.472Z,11884.00
2018-06-10T11:05:53.414Z,12228.00
2018-06-10T11:06:53.404Z,12628.00
2018-06-10T11:07:53.390Z,13100.00
2018-06-10T11:08:54.189Z,13496.00
2018-06-10T11:09:53.400Z,14224.00
2018-06-10T11:10:53.394Z,14904.00
2018-06-10T11:11:53.334Z,15116.00
2018-06-10T11:12:53.324Z,15400.00
2018-06-10T11:13:53.309Z,15804.00
2018-06-10T11:14:53.310Z,16108.00
2018-06-10T11:15:53.323Z,16736.00
2018-06-10T11:16:53.276Z,16408.00
2018-06-10T11:17:53.278Z,16240.00
2018-06-10T11:18:54.205Z,15796.00
2018-06-10T11:19:53.229Z,14760.00
2018-06-10T11:20:53.259Z,13444.00
2018-06-10T11:21:53.198Z,12244.00
2018-06-10T11:22:53.188Z,11252.00
2018-06-10T11:23:53.232Z,10536.00
2018-06-10T11:24:53.159Z,10008.00
2018-06-10T11:25:53.149Z,9464.00
2018-06-10T11:26:53.139Z,9004.00
2018-06-10T11:27:53.123Z,8376.00
2018-06-10T11:28:53.254Z,7608.00
2018-06-10T11:29:53.103Z,7016.00
2018-06-10T11:30:53.077Z,6564.00
2018-06-10T11:31:53.064Z,6120.00
2018-06-10T11:32:53.052Z,5740.00
2018-06-10T11:33:53.272Z,5332.00
2018-06-10T11:34:53.019Z,5160.00
2018-06-10T11:35:53.004Z,5116.00
2018-06-10T11:36:52.994Z,5136.00
2018-06-10T11:37:52.971Z,4956.00
2018-06-10T11:38:53.126Z,4668.00
2018-06-10T11:39:52.943Z,4364.00
2018-06-10T11:40:52.921Z,4016.00
2018-06-10T11:41:52.905Z,3748.00
2018-06-10T11:42:52.889Z,3672.00
2018-06-10T11:43:52.918Z,3688.00
2018-06-10T11:44:52.905Z,3688.00
2018-06-10T11:45:52.834Z,3816.00
2018-06-10T11:46:52.852Z,4392.00
2018-06-10T11:47:52.802Z,5144.00
2018-06-10T11:48:53.253Z,5692.00
2018-06-10T11:49:52.998Z,5920.00
2018-06-10T11:50:53.157Z,5720.00
2018-06-10T11:51:53.022Z,5852.00
2018-06-10T11:52:52.764Z,6084.00
2018-06-10T11:53:53.493Z,6104.00
2018-06-10T11:54:53.110Z,5972.00
2018-06-10T11:55:52.872Z,5776.00
2018-06-10T11:56:52.833Z,5708.00
2018-06-10T11:57:52.867Z,5656.00
2018-06-10T11:58:52.778Z,5640.00
2018-06-10T11:59:53.029Z,5648.00
2018-06-10T12:00:52.817Z,5736.00
2018-06-10T12:01:52.795Z,5792.00
2018-06-10T12:02:52.801Z,5716.00
2018-06-10T12:03:52.773Z,5584.00
2018-06-10T12:04:52.890Z,5416.00
2018-06-10T12:05:52.460Z,5268.00
2018-06-10T12:06:52.441Z,5172.00
2018-06-10T12:07:52.464Z,5160.00
2018-06-10T12:08:52.403Z,5184.00